createdAt,value
2022-12-28T00:01:02.000Z,11.8
2022-12-28T00:04:34.000Z,18
2022-12-28T00:08:07.000Z,13.5
2022-12-28T00:11:39.000Z,16.2
2022-12-28T00:15:12.000Z,14.3
2022-12-28T00:18:45.000Z,14.9
2022-12-28T00:22:18.000Z,18
2022-12-28T00:25:50.000Z,13.5
2022-12-28T00:29:23.000Z,14.5
2022-12-28T00:32:56.000Z,11.7
2022-12-28T00:36:29.000Z,13.5
2022-12-28T00:39:56.000Z,17.2
2022-12-28T00:43:29.000Z,14.7
2022-12-28T00:47:01.000Z,14.8
2022-12-28T00:50:34.000Z,18.8
2022-12-28T00:54:06.000Z,16.4
2022-12-28T00:57:39.000Z,14.3
2022-12-28T01:01:12.000Z,19.6
2022-12-28T01:04:46.000Z,14.6
2022-12-28T01:08:19.000Z,16.7
2022-12-28T01:11:51.000Z,18.2
2022-12-28T01:15:24.000Z,18.6
2022-12-28T01:18:15.000Z,18.6
2022-12-28T01:21:52.000Z,15
2022-12-28T01:25:25.000Z,17
2022-12-28T01:28:57.000Z,18.2
2022-12-28T01:32:30.000Z,18.8
2022-12-28T01:36:05.000Z,14.4
2022-12-28T01:39:38.000Z,17.8
2022-12-28T01:43:10.000Z,16.4
2022-12-28T01:46:56.000Z,14.3
2022-12-28T01:50:28.000Z,15.9
2022-12-28T01:54:01.000Z,16.6
2022-12-28T01:56:52.000Z,17.4
2022-12-28T02:00:25.000Z,14.7
2022-12-28T02:03:58.000Z,13.4
2022-12-28T02:07:30.000Z,16.9
2022-12-28T02:11:03.000Z,14.2
2022-12-28T02:14:36.000Z,15
2022-12-28T02:18:08.000Z,10.9
2022-12-28T02:21:41.000Z,12.6
2022-12-28T02:25:14.000Z,14.6
2022-12-28T02:28:46.000Z,12.8
2022-12-28T02:32:19.000Z,14.5
2022-12-28T02:35:10.000Z,14.8
2022-12-28T02:38:43.000Z,15.7
2022-12-28T02:42:15.000Z,16.4
2022-12-28T02:45:48.000Z,15.3
2022-12-28T02:49:21.000Z,14.3
2022-12-28T02:52:54.000Z,16.2
2022-12-28T02:56:26.000Z,12.1
2022-12-28T02:59:59.000Z,14.2
2022-12-28T03:03:32.000Z,14.3
2022-12-28T03:07:04.000Z,18.5
2022-12-28T03:10:37.000Z,11.1
2022-12-28T03:13:28.000Z,9.1
2022-12-28T03:17:00.000Z,13.5
2022-12-28T03:20:33.000Z,11.6
2022-12-28T03:24:06.000Z,11.7
2022-12-28T03:27:38.000Z,11.6
2022-12-28T03:31:11.000Z,13.8
2022-12-28T03:34:44.000Z,13.9
2022-12-28T03:38:16.000Z,14.3
2022-12-28T03:41:49.000Z,13.6
2022-12-28T03:45:22.000Z,16.7
2022-12-28T03:49:12.000Z,18.1
2022-12-28T03:52:04.000Z,18.1
2022-12-28T03:55:36.000Z,16.3
2022-12-28T03:59:09.000Z,16.7
2022-12-28T04:02:41.000Z,21.2
2022-12-28T04:06:14.000Z,20.3
2022-12-28T04:09:47.000Z,17.7
2022-12-28T04:13:19.000Z,17.4
2022-12-28T04:16:52.000Z,19.7
2022-12-28T04:20:25.000Z,17.1
2022-12-28T04:23:57.000Z,18
2022-12-28T04:27:30.000Z,17.7
2022-12-28T04:30:21.000Z,16.5
2022-12-28T04:33:54.000Z,13.4
2022-12-28T04:37:26.000Z,15
2022-12-28T04:40:59.000Z,14
2022-12-28T04:44:31.000Z,14.5
2022-12-28T04:48:04.000Z,13.8
2022-12-28T04:51:37.000Z,14.4
2022-12-28T04:55:09.000Z,12
2022-12-28T04:58:58.000Z,14.3
2022-12-28T05:02:31.000Z,14.5
2022-12-28T05:06:04.000Z,14.3
2022-12-28T05:08:55.000Z,17.4
2022-12-28T05:12:27.000Z,17.7
2022-12-28T05:16:00.000Z,18.4
2022-12-28T05:19:33.000Z,19.9
2022-12-28T05:23:05.000Z,17.9
2022-12-28T05:26:38.000Z,21.2
2022-12-28T05:30:11.000Z,20.4
2022-12-28T05:33:43.000Z,22.8
2022-12-28T05:37:16.000Z,22.3
2022-12-28T05:40:49.000Z,21.2
2022-12-28T05:44:21.000Z,21.9
2022-12-28T05:47:12.000Z,20.8
2022-12-28T05:50:45.000Z,19.3
2022-12-28T05:54:22.000Z,18.6
2022-12-28T05:57:54.000Z,20.1
2022-12-28T06:01:27.000Z,18
2022-12-28T06:05:00.000Z,18.1
2022-12-28T06:08:33.000Z,23.4
2022-12-28T06:12:05.000Z,19.7
2022-12-28T06:15:38.000Z,18.1
2022-12-28T06:19:11.000Z,14.5
2022-12-28T06:22:43.000Z,14.9
2022-12-28T06:25:34.000Z,17.9
2022-12-28T06:29:07.000Z,17
2022-12-28T06:32:40.000Z,17.6
2022-12-28T06:36:12.000Z,17.4
2022-12-28T06:39:46.000Z,16.5
2022-12-28T06:43:18.000Z,15
2022-12-28T06:46:51.000Z,18.2
2022-12-28T06:50:23.000Z,15.8
2022-12-28T06:54:03.000Z,16
2022-12-28T06:57:36.000Z,16.2
2022-12-28T07:01:08.000Z,16.1
2022-12-28T07:04:00.000Z,16.8
2022-12-28T07:07:32.000Z,19.9
2022-12-28T07:11:05.000Z,18.9
2022-12-28T07:14:37.000Z,17.3
2022-12-28T07:18:10.000Z,19.1
2022-12-28T07:21:43.000Z,17.8
2022-12-28T07:25:15.000Z,15.4
2022-12-28T07:28:48.000Z,15.7
2022-12-28T07:32:21.000Z,16.6
2022-12-28T07:35:53.000Z,14.5
2022-12-28T07:39:26.000Z,17.9
2022-12-28T07:42:17.000Z,17.1
2022-12-28T07:45:50.000Z,12.1
2022-12-28T07:49:22.000Z,16.5
2022-12-28T07:52:55.000Z,15
2022-12-28T08:00:00.000Z,16.1
2022-12-28T08:03:33.000Z,14.2
2022-12-28T08:07:06.000Z,13.6
2022-12-28T08:10:38.000Z,16.7
2022-12-28T08:14:11.000Z,12.7
2022-12-28T08:17:44.000Z,12.4
2022-12-28T08:20:35.000Z,14
2022-12-28T08:24:07.000Z,12.1
2022-12-28T08:27:40.000Z,14.3
2022-12-28T08:31:13.000Z,10.2
2022-12-28T08:34:46.000Z,13.6
2022-12-28T08:38:18.000Z,10.8
2022-12-28T08:41:51.000Z,13
2022-12-28T08:45:23.000Z,10.8
2022-12-28T08:48:56.000Z,12.9
2022-12-28T08:52:30.000Z,11.7
2022-12-28T08:56:03.000Z,16.2
2022-12-28T08:58:54.000Z,13.3
2022-12-28T09:02:27.000Z,12.3
2022-12-28T09:05:59.000Z,10.9
2022-12-28T09:09:32.000Z,10.5
2022-12-28T09:13:05.000Z,11.9
2022-12-28T09:16:38.000Z,11.2
2022-12-28T09:20:10.000Z,9.5
2022-12-28T09:23:43.000Z,9.8
2022-12-28T09:27:16.000Z,8.9
2022-12-28T09:30:49.000Z,9
2022-12-28T09:34:21.000Z,7.5
2022-12-28T09:37:20.000Z,7.6
2022-12-28T09:40:53.000Z,9.3
2022-12-28T09:44:26.000Z,8.7
2022-12-28T09:47:58.000Z,9.5
2022-12-28T09:51:31.000Z,8.8
2022-12-28T09:55:03.000Z,7.5
2022-12-28T09:58:36.000Z,9.9
2022-12-28T10:02:15.000Z,8.4
2022-12-28T10:05:48.000Z,7.9
2022-12-28T10:09:21.000Z,7.8
2022-12-28T10:12:54.000Z,8.3
2022-12-28T10:15:44.000Z,8.2
2022-12-28T10:19:17.000Z,9
2022-12-28T10:22:50.000Z,8.9
2022-12-28T10:26:31.000Z,6.8
2022-12-28T10:30:04.000Z,9.5
2022-12-28T10:33:36.000Z,7.1
2022-12-28T10:37:09.000Z,5.5
2022-12-28T10:40:42.000Z,8.2
2022-12-28T10:44:16.000Z,7.2
2022-12-28T10:48:05.000Z,7
2022-12-28T10:51:38.000Z,5.7
2022-12-28T10:54:29.000Z,7.2
2022-12-28T10:58:02.000Z,8.4
2022-12-28T11:01:56.000Z,7.3
2022-12-28T11:05:29.000Z,6.5
2022-12-28T11:09:02.000Z,7.6
2022-12-28T11:12:34.000Z,6.8
2022-12-28T11:16:07.000Z,7.1
2022-12-28T11:19:40.000Z,7.3
2022-12-28T11:23:12.000Z,6.7
2022-12-28T11:26:45.000Z,4.6
2022-12-28T11:30:21.000Z,8.2
2022-12-28T11:33:12.000Z,6.1
2022-12-28T11:36:45.000Z,5.5
2022-12-28T11:40:17.000Z,6.7
2022-12-28T11:44:26.000Z,7.4
2022-12-28T11:47:59.000Z,9.5
2022-12-28T11:51:31.000Z,8.8
2022-12-28T11:55:12.000Z,8
2022-12-28T11:58:45.000Z,5.9
2022-12-28T12:02:22.000Z,7.5
2022-12-28T12:05:54.000Z,5.6
2022-12-28T12:09:31.000Z,7.7
2022-12-28T12:12:22.000Z,6.8
2022-12-28T12:15:54.000Z,6.1
2022-12-28T12:19:27.000Z,9.3
2022-12-28T12:23:00.000Z,4.7
2022-12-28T12:26:32.000Z,7.2
2022-12-28T12:30:05.000Z,7.4
2022-12-28T12:33:38.000Z,7.4
2022-12-28T12:37:10.000Z,7
2022-12-28T12:40:43.000Z,6.8
2022-12-28T12:44:16.000Z,4.1
2022-12-28T12:47:48.000Z,5
2022-12-28T12:50:40.000Z,5
2022-12-28T12:54:12.000Z,7.8
2022-12-28T12:57:45.000Z,5.6
2022-12-28T13:01:18.000Z,5.2
2022-12-28T13:04:51.000Z,4.8
2022-12-28T13:08:23.000Z,6.6
2022-12-28T13:11:56.000Z,7.2
2022-12-28T13:15:28.000Z,6.1
2022-12-28T13:19:01.000Z,5.5
2022-12-28T13:22:34.000Z,5.3
2022-12-28T13:26:07.000Z,6.3
2022-12-28T13:28:58.000Z,6.8
2022-12-28T13:32:31.000Z,5.2
2022-12-28T13:36:03.000Z,7.1
2022-12-28T13:39:36.000Z,5.3
2022-12-28T13:43:09.000Z,7.7
2022-12-28T13:46:41.000Z,6.5
2022-12-28T13:50:14.000Z,4.1
2022-12-28T13:53:52.000Z,6
2022-12-28T13:57:24.000Z,6.1
2022-12-28T14:01:15.000Z,5.7
2022-12-28T14:04:48.000Z,4.7
2022-12-28T14:07:39.000Z,5.9
2022-12-28T14:11:11.000Z,6.2
2022-12-28T14:14:44.000Z,7.2
2022-12-28T14:18:17.000Z,4.8
2022-12-28T14:21:50.000Z,6.4
2022-12-28T14:25:22.000Z,7.5
2022-12-28T14:28:55.000Z,7.7
2022-12-28T14:32:28.000Z,5.1
2022-12-28T14:38:14.000Z,7.2
2022-12-28T14:41:47.000Z,6.5
2022-12-28T14:45:20.000Z,5.5
2022-12-28T14:48:04.000Z,6.1
2022-12-28T14:51:37.000Z,10.4
2022-12-28T14:55:10.000Z,19.1
2022-12-28T14:58:43.000Z,4.5
2022-12-28T15:41:20.000Z,6.3
2022-12-28T15:44:52.000Z,6
2022-12-28T15:48:25.000Z,5.5
2022-12-28T15:51:58.000Z,5.4
2022-12-28T15:55:30.000Z,6.4
2022-12-28T15:59:03.000Z,4.3
2022-12-28T16:02:41.000Z,4.8
2022-12-28T16:06:14.000Z,6.3
2022-12-28T16:09:47.000Z,5
2022-12-28T16:13:19.000Z,4.2
2022-12-28T16:16:10.000Z,4.7
2022-12-28T16:19:55.000Z,5
2022-12-28T16:23:28.000Z,4.9
2022-12-28T16:27:01.000Z,5.4
2022-12-28T16:30:33.000Z,5.1
2022-12-28T16:34:06.000Z,4.9
2022-12-28T16:37:39.000Z,4.6
2022-12-28T16:41:11.000Z,4.6
2022-12-28T16:44:45.000Z,4.6
2022-12-28T16:48:18.000Z,3.9
2022-12-28T16:51:50.000Z,4.5
2022-12-28T16:54:42.000Z,3.7
2022-12-28T16:58:14.000Z,5.5
2022-12-28T17:01:47.000Z,3.5
2022-12-28T17:05:20.000Z,4.1
2022-12-28T17:08:53.000Z,2.9
2022-12-28T17:12:25.000Z,2.9
2022-12-28T17:15:58.000Z,3.3
2022-12-28T17:19:31.000Z,4.8
2022-12-28T17:23:05.000Z,5.7
2022-12-28T17:26:38.000Z,4.7
2022-12-28T17:30:12.000Z,3.9
2022-12-28T17:33:03.000Z,6.5
2022-12-28T17:36:36.000Z,7
2022-12-28T17:40:09.000Z,5.6
2022-12-28T17:43:41.000Z,6.2
2022-12-28T17:47:14.000Z,5.6
2022-12-28T17:50:47.000Z,8.2
2022-12-28T17:54:19.000Z,4.7
2022-12-28T17:57:52.000Z,4.2
2022-12-28T18:01:25.000Z,3.9
2022-12-28T18:04:58.000Z,3.8
2022-12-28T18:08:30.000Z,6.2
2022-12-28T18:11:21.000Z,4
2022-12-28T18:14:54.000Z,3.8
2022-12-28T18:18:27.000Z,4.7
2022-12-28T18:21:59.000Z,2.3
2022-12-28T18:25:32.000Z,4.2
2022-12-28T18:29:05.000Z,4
2022-12-28T18:32:37.000Z,3
2022-12-28T18:36:10.000Z,5.2
2022-12-28T18:39:43.000Z,5.1
2022-12-28T18:43:16.000Z,5.2
2022-12-28T18:46:49.000Z,3.5
2022-12-28T18:49:40.000Z,3.3
2022-12-28T18:53:13.000Z,2.9
2022-12-28T18:56:45.000Z,3.7
2022-12-28T19:00:18.000Z,3.5
2022-12-28T19:04:10.000Z,3.3
2022-12-28T19:07:43.000Z,2
2022-12-28T19:11:16.000Z,3.5
2022-12-28T19:14:48.000Z,2.5
2022-12-28T19:18:30.000Z,2.9
2022-12-28T19:22:02.000Z,3.6
2022-12-28T19:25:35.000Z,5
2022-12-28T19:28:26.000Z,4.5
2022-12-28T19:31:58.000Z,3.2
2022-12-28T19:35:31.000Z,3.2
2022-12-28T19:39:04.000Z,2.8
2022-12-28T19:42:36.000Z,3.5
2022-12-28T19:46:09.000Z,2.9
2022-12-28T19:49:42.000Z,3.8
2022-12-28T19:53:14.000Z,4.3
2022-12-28T19:56:47.000Z,4.3
2022-12-28T20:00:20.000Z,4.3
2022-12-28T20:03:52.000Z,3.9
2022-12-28T20:06:44.000Z,4.2
2022-12-28T20:10:16.000Z,2.9
2022-12-28T20:13:49.000Z,3.1
2022-12-28T20:17:22.000Z,3.1
2022-12-28T20:20:54.000Z,7
2022-12-28T20:28:11.000Z,11.3
2022-12-28T20:31:44.000Z,4.5
2022-12-28T20:35:16.000Z,5.9
2022-12-28T20:38:49.000Z,4.7
2022-12-28T20:42:22.000Z,7.1
2022-12-28T20:45:54.000Z,10
2022-12-28T20:49:27.000Z,16.9
2022-12-28T20:53:00.000Z,7.1
2022-12-28T20:56:32.000Z,3.6
2022-12-28T21:00:05.000Z,7.3
2022-12-28T21:03:38.000Z,4.1
2022-12-28T21:06:30.000Z,4.8
2022-12-28T21:10:03.000Z,3.3
2022-12-28T21:13:35.000Z,4.3
2022-12-28T21:17:10.000Z,3.8
2022-12-28T21:20:42.000Z,4.2
2022-12-28T21:24:15.000Z,4
2022-12-28T21:27:47.000Z,13.7
2022-12-28T21:31:24.000Z,4.4
2022-12-28T21:34:57.000Z,4.5
2022-12-28T21:38:30.000Z,3.5
2022-12-28T21:42:03.000Z,11.1
2022-12-28T21:44:54.000Z,3.2
2022-12-28T21:48:26.000Z,3.1
2022-12-28T21:51:59.000Z,3.9
2022-12-28T21:55:32.000Z,6.8
2022-12-28T21:59:05.000Z,4
2022-12-28T22:02:38.000Z,4.2
2022-12-28T22:06:11.000Z,8
2022-12-28T22:09:43.000Z,4.7
2022-12-28T22:13:16.000Z,16.8
2022-12-28T22:16:49.000Z,6.7
2022-12-28T22:20:35.000Z,4.2
2022-12-28T22:23:26.000Z,4.4
2022-12-28T22:27:00.000Z,3.7
2022-12-28T22:30:33.000Z,4.4
2022-12-28T22:34:05.000Z,4.5
2022-12-28T22:37:38.000Z,5.5
2022-12-28T22:41:11.000Z,4.2
2022-12-28T22:44:43.000Z,6.1
2022-12-28T22:48:16.000Z,3.7
2022-12-28T22:51:49.000Z,4.3
2022-12-28T22:55:22.000Z,3.5
2022-12-28T22:58:54.000Z,4.1
2022-12-28T23:01:49.000Z,5.2
2022-12-28T23:05:22.000Z,3.2
2022-12-28T23:09:02.000Z,4.9
2022-12-28T23:12:35.000Z,5.9
2022-12-28T23:16:07.000Z,4.1
2022-12-28T23:19:40.000Z,6.2
2022-12-28T23:23:12.000Z,6.2
2022-12-28T23:26:45.000Z,5.6
2022-12-28T23:30:18.000Z,7.3
2022-12-28T23:33:51.000Z,5.3
2022-12-28T23:37:23.000Z,5.2
2022-12-28T23:40:14.000Z,6.3
2022-12-28T23:43:47.000Z,5.7
2022-12-28T23:47:20.000Z,5.2
2022-12-28T23:50:52.000Z,4.2
2022-12-28T23:54:25.000Z,5.6
2022-12-28T23:57:57.000Z,8.3
